sensor_id;sensor_type;location;lat;lon;timestamp;P1;durP1;ratioP1;P2;durP2;ratioP2
71622;SDS011;59473;53.214;5.728;2024-02-26T00:00:58;9.67;;;6.40;;
71622;SDS011;59473;53.214;5.728;2024-02-26T00:03:23;14.17;;;7.30;;
71622;SDS011;59473;53.214;5.728;2024-02-26T00:05:48;13.33;;;8.60;;
71622;SDS011;59473;53.214;5.728;2024-02-26T00:08:13;13.30;;;8.33;;
71622;SDS011;59473;53.214;5.728;2024-02-26T00:10:39;13.13;;;7.57;;
71622;SDS011;59473;53.214;5.728;2024-02-26T00:13:04;13.03;;;8.00;;
71622;SDS011;59473;53.214;5.728;2024-02-26T00:15:29;14.10;;;7.60;;
71622;SDS011;59473;53.214;5.728;2024-02-26T00:17:55;11.33;;;7.33;;
71622;SDS011;59473;53.214;5.728;2024-02-26T00:20:20;11.83;;;6.80;;
71622;SDS011;59473;53.214;5.728;2024-02-26T00:22:45;9.57;;;7.40;;
71622;SDS011;59473;53.214;5.728;2024-02-26T00:25:10;12.10;;;7.60;;
71622;SDS011;59473;53.214;5.728;2024-02-26T00:27:37;12.93;;;7.05;;
71622;SDS011;59473;53.214;5.728;2024-02-26T00:30:04;17.65;;;7.72;;
71622;SDS011;59473;53.214;5.728;2024-02-26T00:32:30;13.17;;;7.80;;
71622;SDS011;59473;53.214;5.728;2024-02-26T00:34:55;12.63;;;8.03;;
71622;SDS011;59473;53.214;5.728;2024-02-26T00:37:20;15.60;;;7.70;;
71622;SDS011;59473;53.214;5.728;2024-02-26T00:39:45;13.93;;;7.73;;
71622;SDS011;59473;53.214;5.728;2024-02-26T00:42:11;12.75;;;8.18;;
71622;SDS011;59473;53.214;5.728;2024-02-26T00:44:36;12.70;;;8.27;;
71622;SDS011;59473;53.214;5.728;2024-02-26T00:47:02;13.80;;;7.53;;
71622;SDS011;59473;53.214;5.728;2024-02-26T00:49:27;9.90;;;6.43;;
71622;SDS011;59473;53.214;5.728;2024-02-26T00:51:52;13.73;;;7.47;;
71622;SDS011;59473;53.214;5.728;2024-02-26T00:54:18;9.90;;;6.90;;
71622;SDS011;59473;53.214;5.728;2024-02-26T00:56:43;9.13;;;6.73;;
71622;SDS011;59473;53.214;5.728;2024-02-26T00:59:08;15.70;;;7.57;;
71622;SDS011;59473;53.214;5.728;2024-02-26T01:01:33;10.20;;;6.10;;
71622;SDS011;59473;53.214;5.728;2024-02-26T01:03:59;10.50;;;7.38;;
71622;SDS011;59473;53.214;5.728;2024-02-26T01:06:25;14.00;;;7.03;;
71622;SDS011;59473;53.214;5.728;2024-02-26T01:08:50;9.67;;;7.07;;
71622;SDS011;59473;53.214;5.728;2024-02-26T01:11:15;12.37;;;7.37;;
71622;SDS011;59473;53.214;5.728;2024-02-26T01:13:40;8.63;;;6.53;;
71622;SDS011;59473;53.214;5.728;2024-02-26T01:16:06;11.23;;;7.10;;
71622;SDS011;59473;53.214;5.728;2024-02-26T01:18:31;12.77;;;7.13;;
71622;SDS011;59473;53.214;5.728;2024-02-26T01:20:56;10.63;;;6.75;;
71622;SDS011;59473;53.214;5.728;2024-02-26T01:23:21;9.83;;;6.33;;
71622;SDS011;59473;53.214;5.728;2024-02-26T01:25:47;9.05;;;6.63;;
71622;SDS011;59473;53.214;5.728;2024-02-26T01:28:13;8.45;;;5.75;;
71622;SDS011;59473;53.214;5.728;2024-02-26T01:30:38;9.70;;;5.87;;
71622;SDS011;59473;53.214;5.728;2024-02-26T01:33:04;10.30;;;7.10;;
71622;SDS011;59473;53.214;5.728;2024-02-26T01:35:29;11.63;;;6.33;;
71622;SDS011;59473;53.214;5.728;2024-02-26T01:37:55;11.20;;;6.88;;
71622;SDS011;59473;53.214;5.728;2024-02-26T01:40:20;9.82;;;6.68;;
71622;SDS011;59473;53.214;5.728;2024-02-26T01:42:45;12.93;;;7.67;;
71622;SDS011;59473;53.214;5.728;2024-02-26T01:45:14;11.90;;;7.90;;
71622;SDS011;59473;53.214;5.728;2024-02-26T01:47:41;10.68;;;7.03;;
71622;SDS011;59473;53.214;5.728;2024-02-26T01:50:06;11.07;;;8.23;;
71622;SDS011;59473;53.214;5.728;2024-02-26T01:52:32;9.15;;;7.53;;
71622;SDS011;59473;53.214;5.728;2024-02-26T01:54:57;14.45;;;7.90;;
71622;SDS011;59473;53.214;5.728;2024-02-26T01:57:23;9.67;;;7.30;;
71622;SDS011;59473;53.214;5.728;2024-02-26T01:59:48;13.90;;;8.83;;
71622;SDS011;59473;53.214;5.728;2024-02-26T02:02:13;10.27;;;7.50;;
71622;SDS011;59473;53.214;5.728;2024-02-26T02:04:40;9.38;;;7.47;;
71622;SDS011;59473;53.214;5.728;2024-02-26T02:07:05;10.47;;;7.70;;
71622;SDS011;59473;53.214;5.728;2024-02-26T02:09:31;11.20;;;7.07;;
71622;SDS011;59473;53.214;5.728;2024-02-26T02:11:56;9.48;;;6.60;;
71622;SDS011;59473;53.214;5.728;2024-02-26T02:14:22;9.47;;;7.53;;
71622;SDS011;59473;53.214;5.728;2024-02-26T02:16:48;8.73;;;6.38;;
71622;SDS011;59473;53.214;5.728;2024-02-26T02:19:13;12.63;;;7.10;;
71622;SDS011;59473;53.214;5.728;2024-02-26T02:21:38;11.17;;;7.17;;
71622;SDS011;59473;53.214;5.728;2024-02-26T02:24:03;9.57;;;7.03;;
71622;SDS011;59473;53.214;5.728;2024-02-26T02:26:29;11.37;;;6.77;;
71622;SDS011;59473;53.214;5.728;2024-02-26T02:28:54;13.30;;;6.50;;
71622;SDS011;59473;53.214;5.728;2024-02-26T02:31:19;11.13;;;6.50;;
71622;SDS011;59473;53.214;5.728;2024-02-26T02:33:45;12.80;;;6.03;;
71622;SDS011;59473;53.214;5.728;2024-02-26T02:36:10;11.07;;;6.40;;
71622;SDS011;59473;53.214;5.728;2024-02-26T02:38:36;12.10;;;7.43;;
71622;SDS011;59473;53.214;5.728;2024-02-26T02:41:02;8.47;;;6.67;;
71622;SDS011;59473;53.214;5.728;2024-02-26T02:43:27;11.87;;;6.30;;
71622;SDS011;59473;53.214;5.728;2024-02-26T02:45:52;8.53;;;5.53;;
71622;SDS011;59473;53.214;5.728;2024-02-26T02:48:17;8.27;;;5.37;;
71622;SDS011;59473;53.214;5.728;2024-02-26T02:50:43;10.03;;;6.47;;
71622;SDS011;59473;53.214;5.728;2024-02-26T02:53:08;9.93;;;6.93;;
71622;SDS011;59473;53.214;5.728;2024-02-26T02:55:33;9.50;;;6.60;;
71622;SDS011;59473;53.214;5.728;2024-02-26T02:57:58;9.37;;;7.10;;
71622;SDS011;59473;53.214;5.728;2024-02-26T03:00:24;8.40;;;5.90;;
71622;SDS011;59473;53.214;5.728;2024-02-26T03:02:49;14.20;;;6.60;;
71622;SDS011;59473;53.214;5.728;2024-02-26T03:05:15;8.85;;;6.32;;
71622;SDS011;59473;53.214;5.728;2024-02-26T03:07:40;10.97;;;6.30;;
71622;SDS011;59473;53.214;5.728;2024-02-26T03:10:05;9.03;;;6.23;;
71622;SDS011;59473;53.214;5.728;2024-02-26T03:12:31;5.97;;;5.30;;
71622;SDS011;59473;53.214;5.728;2024-02-26T03:14:56;9.05;;;6.78;;
71622;SDS011;59473;53.214;5.728;2024-02-26T03:17:22;8.82;;;5.82;;
71622;SDS011;59473;53.214;5.728;2024-02-26T03:19:49;7.90;;;5.67;;
71622;SDS011;59473;53.214;5.728;2024-02-26T03:22:18;12.43;;;6.13;;
71622;SDS011;59473;53.214;5.728;2024-02-26T03:24:43;9.63;;;5.40;;
71622;SDS011;59473;53.214;5.728;2024-02-26T03:27:08;10.03;;;7.03;;
71622;SDS011;59473;53.214;5.728;2024-02-26T03:29:35;11.07;;;6.32;;
71622;SDS011;59473;53.214;5.728;2024-02-26T03:32:00;7.87;;;5.80;;
71622;SDS011;59473;53.214;5.728;2024-02-26T03:34:25;9.70;;;6.23;;
71622;SDS011;59473;53.214;5.728;2024-02-26T03:36:51;7.07;;;5.50;;
71622;SDS011;59473;53.214;5.728;2024-02-26T03:39:16;7.57;;;5.70;;
71622;SDS011;59473;53.214;5.728;2024-02-26T03:41:42;11.90;;;7.10;;
71622;SDS011;59473;53.214;5.728;2024-02-26T03:44:07;7.93;;;6.30;;
71622;SDS011;59473;53.214;5.728;2024-02-26T03:46:32;8.23;;;6.40;;
71622;SDS011;59473;53.214;5.728;2024-02-26T03:48:57;8.87;;;6.03;;
71622;SDS011;59473;53.214;5.728;2024-02-26T03:51:23;10.83;;;6.63;;
71622;SDS011;59473;53.214;5.728;2024-02-26T03:53:48;7.87;;;6.17;;
71622;SDS011;59473;53.214;5.728;2024-02-26T03:56:13;10.60;;;6.60;;
71622;SDS011;59473;53.214;5.728;2024-02-26T03:58:38;13.63;;;7.47;;
71622;SDS011;59473;53.214;5.728;2024-02-26T04:01:04;9.60;;;6.30;;
71622;SDS011;59473;53.214;5.728;2024-02-26T04:03:29;139.13;;;13.57;;
71622;SDS011;59473;53.214;5.728;2024-02-26T04:05:54;8.00;;;5.80;;
71622;SDS011;59473;53.214;5.728;2024-02-26T04:08:19;8.15;;;5.47;;
71622;SDS011;59473;53.214;5.728;2024-02-26T04:10:45;6.85;;;5.28;;
71622;SDS011;59473;53.214;5.728;2024-02-26T04:13:10;6.30;;;4.63;;
71622;SDS011;59473;53.214;5.728;2024-02-26T04:15:35;13.07;;;6.57;;
71622;SDS011;59473;53.214;5.728;2024-02-26T04:18:00;8.83;;;6.10;;
71622;SDS011;59473;53.214;5.728;2024-02-26T04:20:26;11.80;;;6.33;;
71622;SDS011;59473;53.214;5.728;2024-02-26T04:22:51;10.73;;;6.53;;
71622;SDS011;59473;53.214;5.728;2024-02-26T04:25:16;8.23;;;5.67;;
71622;SDS011;59473;53.214;5.728;2024-02-26T04:27:41;17.97;;;9.70;;
71622;SDS011;59473;53.214;5.728;2024-02-26T04:30:07;14.40;;;8.67;;
71622;SDS011;59473;53.214;5.728;2024-02-26T04:32:33;20.23;;;11.03;;
71622;SDS011;59473;53.214;5.728;2024-02-26T04:34:59;10.32;;;6.15;;
71622;SDS011;59473;53.214;5.728;2024-02-26T04:37:24;12.87;;;7.73;;
71622;SDS011;59473;53.214;5.728;2024-02-26T04:39:50;13.83;;;8.53;;
71622;SDS011;59473;53.214;5.728;2024-02-26T04:42:15;14.57;;;8.87;;
71622;SDS011;59473;53.214;5.728;2024-02-26T04:44:40;10.87;;;7.50;;
71622;SDS011;59473;53.214;5.728;2024-02-26T04:47:05;16.87;;;10.27;;
71622;SDS011;59473;53.214;5.728;2024-02-26T04:49:32;13.45;;;8.75;;
71622;SDS011;59473;53.214;5.728;2024-02-26T04:51:57;14.97;;;8.50;;
71622;SDS011;59473;53.214;5.728;2024-02-26T04:54:22;9.73;;;6.73;;
71622;SDS011;59473;53.214;5.728;2024-02-26T04:56:48;13.77;;;7.77;;
71622;SDS011;59473;53.214;5.728;2024-02-26T04:59:13;9.67;;;6.97;;
71622;SDS011;59473;53.214;5.728;2024-02-26T05:01:39;9.20;;;6.63;;
71622;SDS011;59473;53.214;5.728;2024-02-26T05:04:04;14.70;;;8.85;;
71622;SDS011;59473;53.214;5.728;2024-02-26T05:06:29;17.60;;;10.10;;
71622;SDS011;59473;53.214;5.728;2024-02-26T05:08:55;14.20;;;9.33;;
71622;SDS011;59473;53.214;5.728;2024-02-26T05:11:20;13.03;;;8.33;;
71622;SDS011;59473;53.214;5.728;2024-02-26T05:13:45;20.03;;;8.77;;
71622;SDS011;59473;53.214;5.728;2024-02-26T05:16:10;17.30;;;8.73;;
71622;SDS011;59473;53.214;5.728;2024-02-26T05:18:36;16.60;;;9.00;;
71622;SDS011;59473;53.214;5.728;2024-02-26T05:21:01;21.83;;;7.40;;
71622;SDS011;59473;53.214;5.728;2024-02-26T05:23:28;11.70;;;7.55;;
71622;SDS011;59473;53.214;5.728;2024-02-26T05:25:53;11.00;;;7.13;;
71622;SDS011;59473;53.214;5.728;2024-02-26T05:28:18;12.33;;;7.63;;
71622;SDS011;59473;53.214;5.728;2024-02-26T05:30:45;14.15;;;7.40;;
71622;SDS011;59473;53.214;5.728;2024-02-26T05:33:10;13.40;;;7.03;;
71622;SDS011;59473;53.214;5.728;2024-02-26T05:35:36;8.77;;;5.73;;
71622;SDS011;59473;53.214;5.728;2024-02-26T05:38:01;9.77;;;6.33;;
71622;SDS011;59473;53.214;5.728;2024-02-26T05:40:27;8.40;;;5.77;;
71622;SDS011;59473;53.214;5.728;2024-02-26T05:42:52;7.43;;;5.93;;
71622;SDS011;59473;53.214;5.728;2024-02-26T05:45:17;11.17;;;4.60;;
71622;SDS011;59473;53.214;5.728;2024-02-26T05:47:42;9.25;;;6.13;;
71622;SDS011;59473;53.214;5.728;2024-02-26T05:50:11;9.23;;;7.77;;
71622;SDS011;59473;53.214;5.728;2024-02-26T05:52:36;8.15;;;5.50;;
71622;SDS011;59473;53.214;5.728;2024-02-26T05:55:03;9.45;;;6.55;;
71622;SDS011;59473;53.214;5.728;2024-02-26T05:57:29;8.23;;;5.78;;
71622;SDS011;59473;53.214;5.728;2024-02-26T05:59:54;10.10;;;6.10;;
71622;SDS011;59473;53.214;5.728;2024-02-26T06:02:19;9.07;;;6.73;;
71622;SDS011;59473;53.214;5.728;2024-02-26T06:04:44;7.03;;;5.53;;
71622;SDS011;59473;53.214;5.728;2024-02-26T06:07:11;8.00;;;5.40;;
71622;SDS011;59473;53.214;5.728;2024-02-26T06:09:36;7.43;;;5.47;;
71622;SDS011;59473;53.214;5.728;2024-02-26T06:12:02;10.63;;;5.73;;
71622;SDS011;59473;53.214;5.728;2024-02-26T06:14:27;9.77;;;5.83;;
71622;SDS011;59473;53.214;5.728;2024-02-26T06:16:52;8.77;;;6.13;;
71622;SDS011;59473;53.214;5.728;2024-02-26T06:19:17;6.93;;;6.22;;
71622;SDS011;59473;53.214;5.728;2024-02-26T06:21:42;8.77;;;6.23;;
71622;SDS011;59473;53.214;5.728;2024-02-26T06:24:08;7.88;;;5.75;;
71622;SDS011;59473;53.214;5.728;2024-02-26T06:26:33;8.90;;;5.85;;
71622;SDS011;59473;53.214;5.728;2024-02-26T06:28:58;8.48;;;4.93;;
71622;SDS011;59473;53.214;5.728;2024-02-26T06:31:24;7.37;;;4.80;;
71622;SDS011;59473;53.214;5.728;2024-02-26T06:33:49;9.77;;;4.93;;
71622;SDS011;59473;53.214;5.728;2024-02-26T06:36:17;7.67;;;4.97;;
71622;SDS011;59473;53.214;5.728;2024-02-26T06:38:42;8.87;;;5.27;;
71622;SDS011;59473;53.214;5.728;2024-02-26T06:41:08;6.63;;;4.43;;
71622;SDS011;59473;53.214;5.728;2024-02-26T06:43:33;7.57;;;5.25;;
71622;SDS011;59473;53.214;5.728;2024-02-26T06:45:59;6.33;;;4.67;;
71622;SDS011;59473;53.214;5.728;2024-02-26T06:48:24;6.33;;;4.30;;
71622;SDS011;59473;53.214;5.728;2024-02-26T06:50:49;5.10;;;4.47;;
71622;SDS011;59473;53.214;5.728;2024-02-26T06:53:14;6.10;;;5.07;;
71622;SDS011;59473;53.214;5.728;2024-02-26T06:55:41;9.35;;;5.18;;
71622;SDS011;59473;53.214;5.728;2024-02-26T06:58:06;8.30;;;4.97;;
71622;SDS011;59473;53.214;5.728;2024-02-26T07:00:32;5.00;;;4.00;;
71622;SDS011;59473;53.214;5.728;2024-02-26T07:02:57;10.33;;;4.77;;
71622;SDS011;59473;53.214;5.728;2024-02-26T07:05:23;8.30;;;4.60;;
71622;SDS011;59473;53.214;5.728;2024-02-26T07:07:48;6.90;;;4.90;;
71622;SDS011;59473;53.214;5.728;2024-02-26T07:10:13;10.13;;;5.47;;
71622;SDS011;59473;53.214;5.728;2024-02-26T07:12:39;6.23;;;4.90;;
71622;SDS011;59473;53.214;5.728;2024-02-26T07:15:04;12.70;;;5.60;;
71622;SDS011;59473;53.214;5.728;2024-02-26T07:17:30;9.70;;;4.57;;
71622;SDS011;59473;53.214;5.728;2024-02-26T07:19:55;9.23;;;5.50;;
71622;SDS011;59473;53.214;5.728;2024-02-26T07:22:20;7.90;;;4.77;;
71622;SDS011;59473;53.214;5.728;2024-02-26T07:24:45;6.47;;;4.97;;
71622;SDS011;59473;53.214;5.728;2024-02-26T07:27:11;8.30;;;4.80;;
71622;SDS011;59473;53.214;5.728;2024-02-26T07:29:36;9.17;;;4.33;;
71622;SDS011;59473;53.214;5.728;2024-02-26T07:32:02;7.43;;;4.37;;
71622;SDS011;59473;53.214;5.728;2024-02-26T07:34:27;10.53;;;4.90;;
71622;SDS011;59473;53.214;5.728;2024-02-26T07:36:54;5.78;;;4.75;;
71622;SDS011;59473;53.214;5.728;2024-02-26T07:39:19;10.43;;;5.25;;
71622;SDS011;59473;53.214;5.728;2024-02-26T07:41:45;6.40;;;5.07;;
71622;SDS011;59473;53.214;5.728;2024-02-26T07:44:13;7.90;;;4.88;;
71622;SDS011;59473;53.214;5.728;2024-02-26T07:46:38;8.97;;;5.37;;
71622;SDS011;59473;53.214;5.728;2024-02-26T07:49:03;8.50;;;4.07;;
71622;SDS011;59473;53.214;5.728;2024-02-26T07:51:29;8.57;;;4.50;;
71622;SDS011;59473;53.214;5.728;2024-02-26T07:53:54;8.00;;;4.00;;
71622;SDS011;59473;53.214;5.728;2024-02-26T07:56:19;5.80;;;4.10;;
71622;SDS011;59473;53.214;5.728;2024-02-26T07:58:44;8.00;;;3.90;;
71622;SDS011;59473;53.214;5.728;2024-02-26T08:01:12;9.07;;;4.50;;
71622;SDS011;59473;53.214;5.728;2024-02-26T08:03:38;7.80;;;4.60;;
71622;SDS011;59473;53.214;5.728;2024-02-26T08:06:03;8.83;;;4.50;;
71622;SDS011;59473;53.214;5.728;2024-02-26T08:08:28;7.25;;;5.30;;
71622;SDS011;59473;53.214;5.728;2024-02-26T08:10:53;9.25;;;5.60;;
71622;SDS011;59473;53.214;5.728;2024-02-26T08:13:19;8.03;;;5.87;;
71622;SDS011;59473;53.214;5.728;2024-02-26T08:15:44;12.38;;;5.50;;
71622;SDS011;59473;53.214;5.728;2024-02-26T08:18:09;11.30;;;5.45;;
71622;SDS011;59473;53.214;5.728;2024-02-26T08:20:34;13.35;;;6.18;;
71622;SDS011;59473;53.214;5.728;2024-02-26T08:23:00;7.10;;;4.43;;
71622;SDS011;59473;53.214;5.728;2024-02-26T08:25:25;7.55;;;5.05;;
71622;SDS011;59473;53.214;5.728;2024-02-26T08:27:50;10.48;;;5.03;;
71622;SDS011;59473;53.214;5.728;2024-02-26T08:30:16;8.33;;;4.73;;
71622;SDS011;59473;53.214;5.728;2024-02-26T08:32:48;9.20;;;3.97;;
71622;SDS011;59473;53.214;5.728;2024-02-26T08:35:13;6.85;;;4.55;;
71622;SDS011;59473;53.214;5.728;2024-02-26T08:37:38;9.53;;;4.80;;
71622;SDS011;59473;53.214;5.728;2024-02-26T08:40:04;9.73;;;5.10;;
71622;SDS011;59473;53.214;5.728;2024-02-26T08:42:29;7.63;;;4.43;;
71622;SDS011;59473;53.214;5.728;2024-02-26T08:44:55;9.87;;;5.00;;
71622;SDS011;59473;53.214;5.728;2024-02-26T08:47:21;6.82;;;4.05;;
71622;SDS011;59473;53.214;5.728;2024-02-26T08:49:46;11.00;;;5.37;;
71622;SDS011;59473;53.214;5.728;2024-02-26T08:52:11;7.80;;;4.77;;
71622;SDS011;59473;53.214;5.728;2024-02-26T08:54:37;6.27;;;4.77;;
71622;SDS011;59473;53.214;5.728;2024-02-26T08:57:02;7.23;;;5.10;;
71622;SDS011;59473;53.214;5.728;2024-02-26T08:59:28;9.17;;;5.90;;
71622;SDS011;59473;53.214;5.728;2024-02-26T09:01:53;13.77;;;7.40;;
71622;SDS011;59473;53.214;5.728;2024-02-26T09:04:18;10.93;;;6.40;;
71622;SDS011;59473;53.214;5.728;2024-02-26T09:06:43;9.00;;;5.23;;
71622;SDS011;59473;53.214;5.728;2024-02-26T09:09:09;8.43;;;4.97;;
71622;SDS011;59473;53.214;5.728;2024-02-26T09:11:34;7.90;;;5.10;;
71622;SDS011;59473;53.214;5.728;2024-02-26T09:13:59;9.17;;;4.47;;
71622;SDS011;59473;53.214;5.728;2024-02-26T09:16:24;9.25;;;4.70;;
71622;SDS011;59473;53.214;5.728;2024-02-26T09:18:50;8.37;;;4.27;;
71622;SDS011;59473;53.214;5.728;2024-02-26T09:21:15;5.30;;;3.70;;
71622;SDS011;59473;53.214;5.728;2024-02-26T09:23:48;7.87;;;4.40;;
71622;SDS011;59473;53.214;5.728;2024-02-26T09:26:14;8.80;;;4.25;;
71622;SDS011;59473;53.214;5.728;2024-02-26T09:28:39;5.57;;;4.20;;
71622;SDS011;59473;53.214;5.728;2024-02-26T09:31:04;9.50;;;5.00;;
71622;SDS011;59473;53.214;5.728;2024-02-26T09:33:30;9.35;;;4.07;;
71622;SDS011;59473;53.214;5.728;2024-02-26T09:35:55;7.77;;;4.27;;
71622;SDS011;59473;53.214;5.728;2024-02-26T09:38:20;8.37;;;3.70;;
71622;SDS011;59473;53.214;5.728;2024-02-26T09:40:46;4.93;;;3.70;;
71622;SDS011;59473;53.214;5.728;2024-02-26T09:43:12;9.30;;;5.27;;
71622;SDS011;59473;53.214;5.728;2024-02-26T09:45:39;7.13;;;4.57;;
71622;SDS011;59473;53.214;5.728;2024-02-26T09:48:05;8.38;;;4.82;;
71622;SDS011;59473;53.214;5.728;2024-02-26T09:50:33;8.15;;;4.40;;
71622;SDS011;59473;53.214;5.728;2024-02-26T09:52:59;6.60;;;4.20;;
71622;SDS011;59473;53.214;5.728;2024-02-26T09:55:25;6.57;;;4.38;;
71622;SDS011;59473;53.214;5.728;2024-02-26T09:57:51;7.60;;;4.47;;
71622;SDS011;59473;53.214;5.728;2024-02-26T10:00:20;6.47;;;4.30;;
71622;SDS011;59473;53.214;5.728;2024-02-26T10:02:46;8.70;;;4.40;;
71622;SDS011;59473;53.214;5.728;2024-02-26T10:05:12;8.90;;;4.38;;
71622;SDS011;59473;53.214;5.728;2024-02-26T10:07:39;5.75;;;3.65;;
71622;SDS011;59473;53.214;5.728;2024-02-26T10:10:05;6.30;;;3.77;;
71622;SDS011;59473;53.214;5.728;2024-02-26T10:12:30;6.80;;;3.80;;
71622;SDS011;59473;53.214;5.728;2024-02-26T10:14:57;6.57;;;4.30;;
71622;SDS011;59473;53.214;5.728;2024-02-26T10:17:22;6.03;;;4.18;;
71622;SDS011;59473;53.214;5.728;2024-02-26T10:19:48;7.38;;;4.13;;
71622;SDS011;59473;53.214;5.728;2024-02-26T10:22:13;7.43;;;3.73;;
71622;SDS011;59473;53.214;5.728;2024-02-26T10:24:38;6.20;;;4.20;;
71622;SDS011;59473;53.214;5.728;2024-02-26T10:27:03;5.60;;;3.73;;
71622;SDS011;59473;53.214;5.728;2024-02-26T10:29:29;9.10;;;3.83;;
71622;SDS011;59473;53.214;5.728;2024-02-26T10:31:55;9.23;;;4.05;;
71622;SDS011;59473;53.214;5.728;2024-02-26T10:34:20;5.65;;;3.92;;
71622;SDS011;59473;53.214;5.728;2024-02-26T10:36:46;5.00;;;3.53;;
71622;SDS011;59473;53.214;5.728;2024-02-26T10:39:14;7.07;;;4.53;;
71622;SDS011;59473;53.214;5.728;2024-02-26T10:41:40;10.82;;;4.45;;
71622;SDS011;59473;53.214;5.728;2024-02-26T10:44:06;8.07;;;3.93;;
71622;SDS011;59473;53.214;5.728;2024-02-26T10:46:33;7.65;;;4.30;;
71622;SDS011;59473;53.214;5.728;2024-02-26T10:48:59;7.43;;;3.90;;
71622;SDS011;59473;53.214;5.728;2024-02-26T10:51:26;8.65;;;4.30;;
71622;SDS011;59473;53.214;5.728;2024-02-26T10:53:54;7.32;;;4.75;;
71622;SDS011;59473;53.214;5.728;2024-02-26T10:56:21;8.30;;;4.47;;
71622;SDS011;59473;53.214;5.728;2024-02-26T10:58:50;5.55;;;4.47;;
71622;SDS011;59473;53.214;5.728;2024-02-26T11:01:15;6.40;;;4.10;;
71622;SDS011;59473;53.214;5.728;2024-02-26T11:03:40;6.55;;;3.78;;
71622;SDS011;59473;53.214;5.728;2024-02-26T11:06:06;8.88;;;4.38;;
71622;SDS011;59473;53.214;5.728;2024-02-26T11:08:31;6.93;;;5.00;;
71622;SDS011;59473;53.214;5.728;2024-02-26T11:10:57;8.20;;;3.67;;
71622;SDS011;59473;53.214;5.728;2024-02-26T11:13:23;5.83;;;4.10;;
71622;SDS011;59473;53.214;5.728;2024-02-26T11:15:50;9.13;;;4.10;;
71622;SDS011;59473;53.214;5.728;2024-02-26T11:18:15;7.07;;;4.85;;
71622;SDS011;59473;53.214;5.728;2024-02-26T11:20:44;9.13;;;4.57;;
71622;SDS011;59473;53.214;5.728;2024-02-26T11:23:09;6.60;;;4.57;;
71622;SDS011;59473;53.214;5.728;2024-02-26T11:25:35;7.07;;;4.07;;
71622;SDS011;59473;53.214;5.728;2024-02-26T11:28:03;6.17;;;3.90;;
71622;SDS011;59473;53.214;5.728;2024-02-26T11:30:30;7.47;;;4.07;;
71622;SDS011;59473;53.214;5.728;2024-02-26T11:32:56;10.20;;;4.40;;
71622;SDS011;59473;53.214;5.728;2024-02-26T11:35:21;9.30;;;3.97;;
71622;SDS011;59473;53.214;5.728;2024-02-26T11:37:56;12.07;;;4.17;;
71622;SDS011;59473;53.214;5.728;2024-02-26T11:40:25;8.40;;;4.97;;
71622;SDS011;59473;53.214;5.728;2024-02-26T11:42:53;5.80;;;3.95;;
71622;SDS011;59473;53.214;5.728;2024-02-26T11:48:02;8.95;;;4.18;;
71622;SDS011;59473;53.214;5.728;2024-02-26T11:50:34;7.83;;;4.00;;
71622;SDS011;59473;53.214;5.728;2024-02-26T11:55:44;7.43;;;4.53;;
71622;SDS011;59473;53.214;5.728;2024-02-26T11:58:09;7.97;;;3.90;;
71622;SDS011;59473;53.214;5.728;2024-02-26T12:00:35;9.10;;;5.10;;
71622;SDS011;59473;53.214;5.728;2024-02-26T12:03:00;10.03;;;4.43;;
71622;SDS011;59473;53.214;5.728;2024-02-26T12:05:30;12.73;;;4.35;;
71622;SDS011;59473;53.214;5.728;2024-02-26T12:07:59;11.47;;;4.50;;
71622;SDS011;59473;53.214;5.728;2024-02-26T12:10:26;6.90;;;4.05;;
71622;SDS011;59473;53.214;5.728;2024-02-26T12:12:55;12.20;;;4.65;;
71622;SDS011;59473;53.214;5.728;2024-02-26T12:15:23;7.18;;;4.10;;
71622;SDS011;59473;53.214;5.728;2024-02-26T12:17:49;10.10;;;4.90;;
71622;SDS011;59473;53.214;5.728;2024-02-26T12:20:15;13.70;;;4.05;;
71622;SDS011;59473;53.214;5.728;2024-02-26T12:22:41;8.55;;;4.53;;
71622;SDS011;59473;53.214;5.728;2024-02-26T12:25:09;11.50;;;3.95;;
71622;SDS011;59473;53.214;5.728;2024-02-26T12:27:34;9.33;;;3.73;;
71622;SDS011;59473;53.214;5.728;2024-02-26T12:30:00;10.30;;;4.00;;
71622;SDS011;59473;53.214;5.728;2024-02-26T12:32:25;8.40;;;4.37;;
71622;SDS011;59473;53.214;5.728;2024-02-26T12:34:51;10.57;;;4.60;;
71622;SDS011;59473;53.214;5.728;2024-02-26T12:37:16;10.47;;;4.10;;
71622;SDS011;59473;53.214;5.728;2024-02-26T12:39:41;7.57;;;3.75;;
71622;SDS011;59473;53.214;5.728;2024-02-26T12:42:07;7.80;;;4.07;;
71622;SDS011;59473;53.214;5.728;2024-02-26T12:44:33;8.77;;;4.82;;
71622;SDS011;59473;53.214;5.728;2024-02-26T12:47:02;7.77;;;4.43;;
71622;SDS011;59473;53.214;5.728;2024-02-26T12:49:30;6.65;;;4.57;;
71622;SDS011;59473;53.214;5.728;2024-02-26T12:51:56;9.37;;;4.30;;
71622;SDS011;59473;53.214;5.728;2024-02-26T12:54:30;7.88;;;4.00;;
71622;SDS011;59473;53.214;5.728;2024-02-26T12:56:56;7.80;;;4.25;;
71622;SDS011;59473;53.214;5.728;2024-02-26T12:59:22;7.77;;;4.37;;
71622;SDS011;59473;53.214;5.728;2024-02-26T13:01:47;9.47;;;4.87;;
71622;SDS011;59473;53.214;5.728;2024-02-26T13:04:12;7.87;;;4.80;;
71622;SDS011;59473;53.214;5.728;2024-02-26T13:06:38;9.17;;;5.13;;
71622;SDS011;59473;53.214;5.728;2024-02-26T13:09:03;7.63;;;4.30;;
71622;SDS011;59473;53.214;5.728;2024-02-26T13:11:29;9.40;;;4.60;;
71622;SDS011;59473;53.214;5.728;2024-02-26T13:13:56;7.32;;;4.50;;
71622;SDS011;59473;53.214;5.728;2024-02-26T13:16:23;5.50;;;3.83;;
71622;SDS011;59473;53.214;5.728;2024-02-26T13:18:48;9.80;;;4.40;;
71622;SDS011;59473;53.214;5.728;2024-02-26T13:21:14;8.30;;;3.90;;
71622;SDS011;59473;53.214;5.728;2024-02-26T13:23:40;11.38;;;4.70;;
71622;SDS011;59473;53.214;5.728;2024-02-26T13:26:06;8.50;;;4.60;;
71622;SDS011;59473;53.214;5.728;2024-02-26T13:28:31;9.97;;;5.30;;
71622;SDS011;59473;53.214;5.728;2024-02-26T13:30:57;8.13;;;5.00;;
71622;SDS011;59473;53.214;5.728;2024-02-26T13:33:26;11.50;;;4.80;;
71622;SDS011;59473;53.214;5.728;2024-02-26T13:35:52;8.10;;;3.83;;
71622;SDS011;59473;53.214;5.728;2024-02-26T13:38:18;11.67;;;4.90;;
71622;SDS011;59473;53.214;5.728;2024-02-26T13:40:43;9.50;;;4.20;;
71622;SDS011;59473;53.214;5.728;2024-02-26T13:43:08;7.60;;;4.00;;
71622;SDS011;59473;53.214;5.728;2024-02-26T13:45:34;8.13;;;5.20;;
71622;SDS011;59473;53.214;5.728;2024-02-26T13:48:03;7.90;;;3.80;;
71622;SDS011;59473;53.214;5.728;2024-02-26T13:50:29;5.80;;;3.92;;
71622;SDS011;59473;53.214;5.728;2024-02-26T13:52:54;9.23;;;3.93;;
71622;SDS011;59473;53.214;5.728;2024-02-26T13:55:21;10.48;;;4.78;;
71622;SDS011;59473;53.214;5.728;2024-02-26T13:57:48;7.88;;;5.00;;
71622;SDS011;59473;53.214;5.728;2024-02-26T14:00:14;9.43;;;4.63;;
71622;SDS011;59473;53.214;5.728;2024-02-26T14:02:39;8.10;;;4.03;;
71622;SDS011;59473;53.214;5.728;2024-02-26T14:05:04;5.10;;;3.50;;
71622;SDS011;59473;53.214;5.728;2024-02-26T14:07:30;7.57;;;4.10;;
71622;SDS011;59473;53.214;5.728;2024-02-26T14:09:57;9.20;;;5.03;;
71622;SDS011;59473;53.214;5.728;2024-02-26T14:12:22;8.70;;;5.43;;
71622;SDS011;59473;53.214;5.728;2024-02-26T14:14:48;5.57;;;4.27;;
71622;SDS011;59473;53.214;5.728;2024-02-26T14:17:13;6.65;;;4.18;;
71622;SDS011;59473;53.214;5.728;2024-02-26T14:19:39;8.30;;;4.72;;
71622;SDS011;59473;53.214;5.728;2024-02-26T14:22:09;6.88;;;4.60;;
71622;SDS011;59473;53.214;5.728;2024-02-26T14:24:35;5.45;;;4.45;;
71622;SDS011;59473;53.214;5.728;2024-02-26T14:27:01;6.60;;;4.47;;
71622;SDS011;59473;53.214;5.728;2024-02-26T14:29:27;6.10;;;3.60;;
71622;SDS011;59473;53.214;5.728;2024-02-26T14:31:52;10.17;;;4.43;;
71622;SDS011;59473;53.214;5.728;2024-02-26T14:34:18;7.80;;;3.87;;
71622;SDS011;59473;53.214;5.728;2024-02-26T14:36:43;4.90;;;3.53;;
71622;SDS011;59473;53.214;5.728;2024-02-26T14:39:09;5.17;;;3.27;;